This is the latest recevied weather packets stored in our database for station/object OH2CHY-10. If no packets are shown the sender has not sent any weather packets the latest 10 day(s).
| Time | Temp. | Humidity | Pressure | Rain* | Wind** | Luminosity | Snow |
|---|---|---|---|---|---|---|---|
| 1778063370 | 16.11° C | 23% | 1013.5 hPa | - | - | - | - |
| 1778062470 | 13.89° C | 27% | 1013.6 hPa | - | - | - | - |
| 1778061570 | 16.67° C | 24% | 1013.3 hPa | - | - | - | - |
| 1778060670 | 14.44° C | 26% | 1013.5 hPa | - | - | - | - |
| 1778059770 | 13.33° C | 28% | 1013.2 hPa | - | - | - | - |
| 1778058870 | 15.56° C | 28% | 1013.1 hPa | - | - | - | - |
| 1778057970 | 12.22° C | 32% | 1013.2 hPa | - | - | - | - |
| 1778057070 | 10.56° C | 30% | 1013.2 hPa | - | - | - | - |
| 1778056170 | 12.78° C | 28% | 1013.2 hPa | - | - | - | - |
| 1778055269 | 16.11° C | 28% | 1013 hPa | - | - | - | - |
| 1778054369 | 14.44° C | 29% | 1012.9 hPa | - | - | - | - |
| 1778053469 | 13.89° C | 31% | 1012.8 hPa | - | - | - | - |
| 1778052569 | 12.22° C | 34% | 1012.7 hPa | - | - | - | - |
| 1778051669 | 11.67° C | 36% | 1012.6 hPa | - | - | - | - |
| 1778050769 | 11.67° C | 38% | 1012.6 hPa | - | - | - | - |
| 1778049869 | 10.56° C | 38% | 1012.6 hPa | - | - | - | - |
| 1778048969 | 10.56° C | 41% | 1012.5 hPa | - | - | - | - |
| 1778048069 | 10° C | 43% | 1012.4 hPa | - | - | - | - |
| 1778047169 | 8.89° C | 44% | 1012.2 hPa | - | - | - | - |
| 1778046269 | 7.78° C | 46% | 1012.2 hPa | - | - | - | - |
| 1778045369 | 8.89° C | 43% | 1012 hPa | - | - | - | - |
| 1778044469 | 11.67° C | 38% | 1011.8 hPa | - | - | - | - |
| 1778043569 | 14.44° C | 34% | 1011.6 hPa | - | - | - | - |
| 1778042669 | 16.11° C | 31% | 1011.4 hPa | - | - | - | - |
| 1778041768 | 20° C | 28% | 1011.2 hPa | - | - | - | - |
* Rain since midnight (hover to see other rain measurements)
** Current wind speed in m/s (hover to see current wind gust speed)